createdAt,value
2017-10-16T00:00:22.992Z,12.30
2017-10-16T00:02:48.940Z,12.30
2017-10-16T00:05:15.631Z,12.20
2017-10-16T00:07:41.626Z,12.20
2017-10-16T00:10:07.592Z,12.20
2017-10-16T00:12:34.292Z,12.10
2017-10-16T00:15:00.273Z,12.10
2017-10-16T00:17:26.217Z,12.10
2017-10-16T00:19:52.919Z,12.10
2017-10-16T00:22:18.894Z,12.10
2017-10-16T00:24:44.872Z,12.10
2017-10-16T00:27:11.568Z,12.00
2017-10-16T00:29:37.548Z,12.00
2017-10-16T00:32:03.537Z,12.10
2017-10-16T00:34:29.485Z,12.10
2017-10-16T00:36:55.490Z,12.10
2017-10-16T00:39:21.437Z,12.10
2017-10-16T00:41:47.397Z,12.00
2017-10-16T00:44:13.381Z,12.00
2017-10-16T00:46:39.321Z,12.00
2017-10-16T00:49:05.285Z,12.10
2017-10-16T00:51:31.274Z,12.00
2017-10-16T00:53:57.219Z,12.00
2017-10-16T00:56:23.185Z,11.90
2017-10-16T00:58:49.161Z,12.00
2017-10-16T01:01:15.129Z,12.00
2017-10-16T01:03:41.074Z,11.90
2017-10-16T01:06:07.042Z,11.80
2017-10-16T01:08:32.976Z,11.80
2017-10-16T01:10:58.959Z,11.90
2017-10-16T01:13:24.901Z,11.90
2017-10-16T01:15:50.833Z,11.90
2017-10-16T01:18:17.545Z,11.80
2017-10-16T01:20:44.232Z,11.90
2017-10-16T01:23:10.203Z,11.90
2017-10-16T01:25:36.877Z,11.80
2017-10-16T01:28:02.861Z,11.80
2017-10-16T01:30:28.801Z,11.80
2017-10-16T01:32:54.757Z,11.70
2017-10-16T01:35:21.472Z,11.70
2017-10-16T01:37:47.417Z,11.70
2017-10-16T01:40:13.360Z,11.70
2017-10-16T01:42:39.336Z,11.70
2017-10-16T01:45:05.273Z,11.70
2017-10-16T01:47:31.205Z,11.70
2017-10-16T01:49:57.181Z,11.60
2017-10-16T01:52:23.121Z,11.60
2017-10-16T01:54:49.053Z,11.60
2017-10-16T01:57:15.053Z,11.60
2017-10-16T01:59:41.765Z,11.80
2017-10-16T02:02:07.714Z,11.70
2017-10-16T02:04:33.730Z,11.70
2017-10-16T02:06:59.701Z,11.70
2017-10-16T02:09:26.378Z,11.70
2017-10-16T02:11:52.358Z,11.70
2017-10-16T02:14:18.344Z,11.60
2017-10-16T02:16:45.032Z,11.60
2017-10-16T02:19:11.009Z,11.50
2017-10-16T02:21:36.949Z,11.50
2017-10-16T02:24:02.937Z,11.60
2017-10-16T02:26:28.881Z,11.60
2017-10-16T02:28:54.816Z,11.60
2017-10-16T02:31:20.804Z,11.60
2017-10-16T02:33:47.502Z,11.60
2017-10-16T02:36:13.453Z,11.50
2017-10-16T02:38:40.177Z,11.50
2017-10-16T02:41:06.989Z,11.50
2017-10-16T02:43:32.959Z,11.50
2017-10-16T02:45:58.905Z,11.50
2017-10-16T02:48:25.637Z,11.40
2017-10-16T02:50:52.369Z,11.50
2017-10-16T02:53:19.090Z,11.50
2017-10-16T02:55:45.816Z,11.40
2017-10-16T02:58:12.519Z,11.40
2017-10-16T03:00:38.501Z,11.40
2017-10-16T03:03:04.445Z,11.40
2017-10-16T03:05:30.473Z,11.50
2017-10-16T03:07:57.164Z,11.40
2017-10-16T03:10:23.128Z,11.40
2017-10-16T03:12:49.178Z,11.40
2017-10-16T03:15:15.141Z,11.40
2017-10-16T03:17:41.920Z,11.40
2017-10-16T03:20:07.910Z,11.40
2017-10-16T03:22:33.848Z,11.40
2017-10-16T03:24:59.824Z,11.40
2017-10-16T03:27:25.766Z,11.30
2017-10-16T03:29:51.723Z,11.30
2017-10-16T03:32:17.714Z,11.30
2017-10-16T03:34:44.421Z,11.40
2017-10-16T03:37:10.374Z,11.30
2017-10-16T03:39:36.365Z,11.50
2017-10-16T03:42:02.421Z,11.40
2017-10-16T03:44:28.376Z,11.40
2017-10-16T03:46:54.376Z,11.40
2017-10-16T03:49:20.334Z,11.30
2017-10-16T03:51:46.293Z,11.40
2017-10-16T03:54:12.264Z,11.40
2017-10-16T03:56:38.237Z,11.40
2017-10-16T03:59:04.953Z,11.30
2017-10-16T04:01:30.901Z,11.30
2017-10-16T04:03:56.885Z,11.40
2017-10-16T04:06:22.833Z,11.40
2017-10-16T04:08:49.553Z,11.50
2017-10-16T04:11:15.526Z,11.50
2017-10-16T04:13:41.481Z,11.40
2017-10-16T04:16:08.217Z,11.40
2017-10-16T04:18:34.161Z,11.40
2017-10-16T04:21:00.113Z,11.40
2017-10-16T04:23:26.838Z,11.30
2017-10-16T04:25:53.546Z,11.40
2017-10-16T04:28:19.527Z,11.30
2017-10-16T04:30:45.477Z,11.30
2017-10-16T04:33:12.194Z,11.30
2017-10-16T04:35:38.181Z,11.30
2017-10-16T04:38:04.166Z,11.30
2017-10-16T04:40:30.106Z,11.30
2017-10-16T04:42:56.061Z,11.30
2017-10-16T04:45:22.058Z,11.30
2017-10-16T04:47:48.752Z,11.30
2017-10-16T04:50:14.751Z,11.30
2017-10-16T04:52:40.693Z,11.30
2017-10-16T04:55:07.386Z,11.20
2017-10-16T04:57:33.357Z,11.20
2017-10-16T05:00:00.056Z,11.20
2017-10-16T05:02:26.057Z,11.20
2017-10-16T05:04:52.746Z,11.10
2017-10-16T05:07:18.725Z,11.10
2017-10-16T05:09:44.701Z,11.10
2017-10-16T05:12:11.445Z,11.20
2017-10-16T05:14:37.437Z,11.20
2017-10-16T05:17:04.122Z,11.20
2017-10-16T05:19:30.065Z,11.20
2017-10-16T05:22:03.920Z,11.20
2017-10-16T05:24:29.876Z,11.20
2017-10-16T05:26:55.890Z,11.20
2017-10-16T05:29:21.922Z,11.20
2017-10-16T05:31:47.861Z,11.20
2017-10-16T05:34:13.841Z,11.20
2017-10-16T05:36:39.812Z,11.20
2017-10-16T05:39:06.489Z,11.20
2017-10-16T05:41:32.580Z,11.20
2017-10-16T05:43:58.539Z,11.20
2017-10-16T05:46:24.503Z,11.10
2017-10-16T05:48:50.487Z,11.20
2017-10-16T05:51:16.421Z,11.20
2017-10-16T05:53:42.385Z,11.20
2017-10-16T05:56:09.098Z,11.20
2017-10-16T05:58:35.040Z,11.20
2017-10-16T06:01:00.993Z,11.30
2017-10-16T06:03:26.973Z,11.30
2017-10-16T06:05:52.953Z,11.30
2017-10-16T06:08:19.638Z,11.30
2017-10-16T06:10:45.606Z,11.30
2017-10-16T06:13:11.544Z,11.30
2017-10-16T06:15:37.526Z,11.30
2017-10-16T06:18:03.501Z,11.40
2017-10-16T06:20:30.226Z,11.30
2017-10-16T06:22:56.917Z,11.40
2017-10-16T06:25:22.937Z,11.40
2017-10-16T06:27:48.884Z,11.40
2017-10-16T06:30:14.845Z,11.50
2017-10-16T06:32:41.557Z,11.50
2017-10-16T06:35:07.523Z,11.50
2017-10-16T06:37:33.501Z,11.60
2017-10-16T06:39:59.450Z,11.70
2017-10-16T06:42:25.429Z,11.80
2017-10-16T06:44:51.391Z,11.80
2017-10-16T06:47:17.337Z,11.80
2017-10-16T06:49:44.044Z,11.90
2017-10-16T06:52:10.725Z,11.90
2017-10-16T06:54:36.727Z,11.90
2017-10-16T06:57:02.691Z,12.00
2017-10-16T06:59:29.408Z,12.10
2017-10-16T07:01:55.414Z,12.10
2017-10-16T07:04:21.361Z,12.20
2017-10-16T07:06:47.313Z,12.20
2017-10-16T07:09:13.289Z,12.30
2017-10-16T07:11:39.277Z,12.30
2017-10-16T07:14:05.265Z,12.40
2017-10-16T07:16:31.965Z,12.50
2017-10-16T07:18:57.957Z,12.50
2017-10-16T07:21:23.902Z,12.60
2017-10-16T07:23:50.614Z,12.70
2017-10-16T07:26:16.565Z,12.60
2017-10-16T07:28:42.545Z,12.70
2017-10-16T07:31:09.229Z,12.90
2017-10-16T07:33:35.217Z,12.80
2017-10-16T07:36:01.228Z,12.90
2017-10-16T07:38:27.205Z,13.10
2017-10-16T07:40:53.193Z,13.20
2017-10-16T07:43:26.073Z,13.40
2017-10-16T07:45:52.073Z,13.50
2017-10-16T07:48:18.013Z,13.50
2017-10-16T07:50:43.952Z,13.60
2017-10-16T07:53:09.924Z,13.70
2017-10-16T07:55:35.905Z,13.80
2017-10-16T07:58:01.922Z,13.90
2017-10-16T08:00:27.861Z,14.00
2017-10-16T08:02:53.818Z,14.10
2017-10-16T08:05:20.549Z,14.30
2017-10-16T08:07:46.502Z,14.20
2017-10-16T08:10:12.481Z,14.30
2017-10-16T08:12:38.421Z,14.30
2017-10-16T08:15:04.425Z,14.40
2017-10-16T08:17:30.373Z,14.50
2017-10-16T08:19:57.061Z,14.70
2017-10-16T08:22:23.029Z,14.70
2017-10-16T08:24:49.019Z,14.80
2017-10-16T08:27:15.693Z,15.10
2017-10-16T08:29:41.626Z,15.10
2017-10-16T08:32:07.610Z,15.20
2017-10-16T08:34:34.296Z,15.40
2017-10-16T08:37:00.265Z,15.40
2017-10-16T08:39:26.262Z,15.50
2017-10-16T08:41:52.197Z,15.60
2017-10-16T08:44:18.166Z,15.60
2017-10-16T08:46:44.857Z,15.60
2017-10-16T08:49:10.830Z,15.60
2017-10-16T08:51:36.817Z,15.70
2017-10-16T08:54:02.774Z,15.90
2017-10-16T08:56:28.719Z,16.10
2017-10-16T08:58:55.453Z,16.10
2017-10-16T09:01:22.133Z,16.20
2017-10-16T09:03:48.096Z,16.20
2017-10-16T09:06:14.070Z,16.30
2017-10-16T09:08:40.014Z,16.40
2017-10-16T09:11:05.957Z,16.40
2017-10-16T09:13:31.932Z,16.60
2017-10-16T09:15:57.917Z,16.60
2017-10-16T09:18:24.594Z,16.60
2017-10-16T09:20:50.533Z,16.60
2017-10-16T09:23:16.525Z,16.70
2017-10-16T09:25:42.497Z,16.80
2017-10-16T09:28:08.444Z,16.90
2017-10-16T09:30:34.413Z,17.00
2017-10-16T09:33:00.387Z,17.10
2017-10-16T09:35:26.326Z,17.20
2017-10-16T09:37:52.277Z,17.30
2017-10-16T09:40:18.241Z,17.30
2017-10-16T09:42:44.226Z,17.40
2017-10-16T09:45:10.175Z,17.50
2017-10-16T09:47:36.859Z,17.60
2017-10-16T09:50:02.857Z,17.60
2017-10-16T09:52:28.795Z,17.70
2017-10-16T09:54:54.766Z,17.70
2017-10-16T09:57:20.740Z,17.80
2017-10-16T09:59:47.417Z,18.00
2017-10-16T10:02:13.388Z,18.00
2017-10-16T10:04:39.327Z,18.00
2017-10-16T10:07:05.334Z,18.10
2017-10-16T10:09:31.342Z,18.30
2017-10-16T10:11:57.282Z,18.40
2017-10-16T10:14:23.224Z,18.40
2017-10-16T10:16:49.209Z,18.50
2017-10-16T10:19:15.888Z,18.50
2017-10-16T10:21:41.837Z,18.50
2017-10-16T10:24:08.557Z,18.50
2017-10-16T10:26:34.670Z,18.50
2017-10-16T10:29:00.654Z,18.60
2017-10-16T10:31:26.617Z,18.60
2017-10-16T10:33:52.561Z,18.80
2017-10-16T10:36:18.534Z,19.10
2017-10-16T10:38:44.491Z,19.20
2017-10-16T10:41:10.471Z,19.30
2017-10-16T10:43:36.442Z,19.40
2017-10-16T10:46:02.402Z,19.60
2017-10-16T10:48:28.382Z,19.70
2017-10-16T10:50:54.333Z,19.90
2017-10-16T10:53:20.308Z,19.90
2017-10-16T10:55:46.276Z,20.00
2017-10-16T10:58:12.261Z,20.10
2017-10-16T11:00:38.198Z,20.20
2017-10-16T11:03:04.133Z,20.40
2017-10-16T11:05:30.140Z,20.50
2017-10-16T11:07:56.072Z,20.70
2017-10-16T11:10:22.013Z,20.80
2017-10-16T11:12:48.738Z,20.80
2017-10-16T11:15:15.445Z,20.80
2017-10-16T11:17:41.413Z,20.80
2017-10-16T11:20:07.402Z,20.80
2017-10-16T11:22:33.341Z,20.90
2017-10-16T11:24:59.325Z,21.10
2017-10-16T11:27:25.257Z,21.10
2017-10-16T11:29:51.184Z,21.10
2017-10-16T11:32:17.156Z,21.20
2017-10-16T11:34:43.106Z,21.30
2017-10-16T11:37:09.081Z,21.40
2017-10-16T11:39:35.021Z,21.40
2017-10-16T11:42:00.986Z,21.50
2017-10-16T11:44:26.953Z,21.60
2017-10-16T11:46:52.933Z,21.70
2017-10-16T11:49:19.646Z,21.80
2017-10-16T11:51:46.375Z,21.80
2017-10-16T11:54:13.049Z,21.90
2017-10-16T11:56:38.977Z,21.90
2017-10-16T11:59:04.963Z,22.00
2017-10-16T12:01:30.917Z,21.80
2017-10-16T12:03:57.601Z,22.10
2017-10-16T12:06:23.569Z,22.10
2017-10-16T12:08:49.505Z,22.40
2017-10-16T12:11:15.492Z,22.70
2017-10-16T12:13:41.428Z,22.80
2017-10-16T12:16:07.365Z,23.50
2017-10-16T12:18:33.348Z,24.00
2017-10-16T12:20:59.346Z,24.40
2017-10-16T12:23:25.299Z,24.70
2017-10-16T12:25:51.281Z,25.20
2017-10-16T12:28:17.216Z,25.40
2017-10-16T12:30:43.157Z,25.50
2017-10-16T12:33:09.885Z,24.90
2017-10-16T12:35:36.605Z,24.90
2017-10-16T12:38:03.306Z,25.40
2017-10-16T12:40:30.777Z,25.00
2017-10-16T12:42:57.461Z,25.20
2017-10-16T12:45:23.453Z,25.20
2017-10-16T12:47:49.459Z,26.00
2017-10-16T12:50:15.401Z,26.30
2017-10-16T12:52:41.377Z,26.40
2017-10-16T12:55:07.361Z,26.20
2017-10-16T12:57:33.353Z,26.40
2017-10-16T13:00:00.069Z,26.10
2017-10-16T13:02:27.532Z,26.00
2017-10-16T13:04:54.220Z,27.00
2017-10-16T13:07:20.157Z,26.90
2017-10-16T13:09:46.881Z,28.40
2017-10-16T13:12:13.575Z,29.00
2017-10-16T13:14:39.553Z,29.00
2017-10-16T13:17:05.538Z,28.90
2017-10-16T13:19:31.483Z,29.00
2017-10-16T13:21:57.470Z,28.90
2017-10-16T13:24:23.425Z,29.20
2017-10-16T13:26:49.397Z,29.30
2017-10-16T13:29:15.381Z,29.90
2017-10-16T13:31:41.323Z,30.20
2017-10-16T13:34:07.266Z,30.30
2017-10-16T13:36:33.244Z,29.50
2017-10-16T13:38:59.180Z,30.00
2017-10-16T13:41:26.637Z,28.20
2017-10-16T13:43:53.320Z,27.30
2017-10-16T13:46:19.349Z,27.30
2017-10-16T13:48:45.325Z,27.10
2017-10-16T13:51:11.265Z,26.90
2017-10-16T13:53:37.239Z,27.50
2017-10-16T13:56:03.177Z,27.90
2017-10-16T13:58:29.145Z,28.00
2017-10-16T14:00:55.121Z,28.00
2017-10-16T14:03:21.834Z,27.60
2017-10-16T14:05:47.809Z,27.60
2017-10-16T14:08:13.827Z,27.50
2017-10-16T14:10:39.776Z,27.00
2017-10-16T14:13:06.512Z,26.20
2017-10-16T14:15:33.190Z,26.20
2017-10-16T14:17:59.133Z,26.20
2017-10-16T14:20:25.126Z,25.70
2017-10-16T14:22:51.113Z,25.60
2017-10-16T14:25:21.773Z,25.20
2017-10-16T14:27:47.837Z,25.20
2017-10-16T14:30:14.509Z,24.80
2017-10-16T14:32:40.497Z,24.70
2017-10-16T14:35:06.429Z,24.60
2017-10-16T14:37:32.413Z,24.70
2017-10-16T14:39:58.381Z,24.60
2017-10-16T14:42:24.320Z,24.50
2017-10-16T14:44:50.289Z,24.40
2017-10-16T14:47:16.289Z,24.50
2017-10-16T14:49:42.293Z,24.60
2017-10-16T14:52:08.228Z,24.50
2017-10-16T14:54:34.910Z,24.40
2017-10-16T14:57:00.881Z,24.40
2017-10-16T14:59:26.813Z,24.40
2017-10-16T15:01:52.797Z,24.30
2017-10-16T15:04:18.737Z,24.10
2017-10-16T15:06:44.705Z,24.00
2017-10-16T15:09:10.701Z,24.00
2017-10-16T15:11:37.388Z,23.90
2017-10-16T15:14:03.366Z,23.90
2017-10-16T15:16:29.346Z,23.90
2017-10-16T15:18:56.031Z,23.80
2017-10-16T15:21:22.047Z,23.80
2017-10-16T15:23:48.034Z,23.80
2017-10-16T15:26:13.998Z,23.70
2017-10-16T15:28:39.998Z,23.70
2017-10-16T15:31:06.013Z,23.60
2017-10-16T15:33:32.697Z,23.50
2017-10-16T15:35:58.734Z,23.50
2017-10-16T15:38:25.413Z,23.20
2017-10-16T15:40:51.347Z,23.20
2017-10-16T15:43:17.321Z,23.10
2017-10-16T15:45:43.257Z,22.90
2017-10-16T15:48:09.201Z,22.50
2017-10-16T15:50:35.920Z,22.20
2017-10-16T15:53:02.630Z,22.10
2017-10-16T15:55:28.586Z,22.00
2017-10-16T15:57:54.566Z,21.80
2017-10-16T16:00:21.286Z,21.40
2017-10-16T16:02:47.961Z,21.20
2017-10-16T16:05:13.929Z,21.20
2017-10-16T16:07:39.917Z,21.10
2017-10-16T16:10:06.967Z,20.90
2017-10-16T16:12:33.664Z,20.70
2017-10-16T16:14:59.643Z,20.60
2017-10-16T16:17:25.582Z,20.70
2017-10-16T16:19:51.564Z,20.40
2017-10-16T16:22:17.508Z,20.40
2017-10-16T16:24:43.437Z,20.30
2017-10-16T16:27:09.401Z,20.20
2017-10-16T16:29:35.377Z,20.20
2017-10-16T16:32:01.309Z,20.10
2017-10-16T16:34:27.313Z,20.00
2017-10-16T16:36:53.249Z,19.80
2017-10-16T16:39:19.977Z,19.70
2017-10-16T16:41:46.761Z,19.60
2017-10-16T16:46:43.800Z,19.50
2017-10-16T16:49:10.226Z,19.30
2017-10-16T16:51:36.329Z,19.20
2017-10-16T16:54:02.550Z,19.10
2017-10-16T16:56:28.598Z,19.20
2017-10-16T16:58:55.570Z,18.90
2017-10-16T17:01:21.745Z,18.90
2017-10-16T17:03:48.481Z,18.70
2017-10-16T17:06:14.474Z,18.70
2017-10-16T17:08:41.179Z,18.70
2017-10-16T17:11:07.179Z,18.70
2017-10-16T17:13:33.125Z,18.60
2017-10-16T17:15:59.870Z,18.40
2017-10-16T17:18:25.820Z,18.30
2017-10-16T17:20:51.765Z,18.30
2017-10-16T17:23:18.494Z,18.30
2017-10-16T17:25:44.501Z,18.30
2017-10-16T17:28:11.296Z,18.10
2017-10-16T17:30:38.070Z,18.10
2017-10-16T17:33:04.085Z,18.00
2017-10-16T17:35:30.082Z,18.00
2017-10-16T17:37:56.061Z,17.80
2017-10-16T17:40:22.001Z,17.80
2017-10-16T17:42:48.005Z,17.80
2017-10-16T17:45:13.968Z,17.80
2017-10-16T17:47:40.009Z,17.80
2017-10-16T17:50:06.689Z,17.60
2017-10-16T17:52:32.636Z,17.60
2017-10-16T17:54:59.357Z,17.60
2017-10-16T17:57:25.332Z,17.60
2017-10-16T17:59:51.308Z,17.50
2017-10-16T18:02:17.241Z,17.50
2017-10-16T18:04:43.216Z,17.50
2017-10-16T18:07:09.300Z,17.50
2017-10-16T18:09:36.057Z,17.50
2017-10-16T18:12:02.069Z,17.40
2017-10-16T18:14:28.065Z,17.40
2017-10-16T18:16:54.777Z,17.30
2017-10-16T18:19:21.488Z,17.30
2017-10-16T18:21:47.428Z,17.30
2017-10-16T18:24:13.410Z,17.30
2017-10-16T18:26:40.255Z,17.20
2017-10-16T18:29:06.978Z,17.20
2017-10-16T18:31:33.694Z,17.20
2017-10-16T18:33:59.640Z,17.10
2017-10-16T18:36:25.625Z,17.10
2017-10-16T18:38:52.344Z,17.00
2017-10-16T18:41:18.288Z,17.00
2017-10-16T18:43:44.284Z,17.00
2017-10-16T18:46:10.267Z,16.90
2017-10-16T18:48:36.249Z,16.90
2017-10-16T18:51:02.249Z,16.80
2017-10-16T18:53:28.196Z,16.80
2017-10-16T18:55:54.208Z,16.80
2017-10-16T18:58:20.957Z,16.70
2017-10-16T19:00:46.921Z,16.70
2017-10-16T19:03:12.872Z,16.60
2017-10-16T19:05:38.872Z,16.60
2017-10-16T19:08:05.582Z,16.70
2017-10-16T19:10:32.405Z,16.60
2017-10-16T19:12:58.332Z,16.60
2017-10-16T19:15:25.065Z,16.50
2017-10-16T19:17:51.009Z,16.50
2017-10-16T19:20:16.954Z,16.50
2017-10-16T19:22:42.941Z,16.40
2017-10-16T19:25:08.923Z,16.40
2017-10-16T19:27:34.878Z,16.40
2017-10-16T19:30:00.853Z,16.40
2017-10-16T19:32:26.801Z,16.30
2017-10-16T19:34:52.731Z,16.30
2017-10-16T19:37:18.701Z,16.20
2017-10-16T19:39:44.645Z,16.20
2017-10-16T19:42:10.613Z,16.20
2017-10-16T19:44:36.616Z,16.30
2017-10-16T19:47:02.559Z,16.30
2017-10-16T19:49:28.505Z,16.30
2017-10-16T19:51:54.509Z,16.20
2017-10-16T19:54:20.446Z,16.20
2017-10-16T19:56:46.433Z,16.20
2017-10-16T19:59:12.381Z,16.20
2017-10-16T20:01:38.362Z,16.10
2017-10-16T20:04:04.359Z,16.00
2017-10-16T20:06:30.301Z,16.00
2017-10-16T20:08:56.276Z,16.00
2017-10-16T20:11:22.285Z,16.00
2017-10-16T20:13:48.224Z,16.00
2017-10-16T20:16:14.195Z,16.00
2017-10-16T20:18:40.171Z,15.90
2017-10-16T20:21:06.889Z,15.90
2017-10-16T20:23:33.617Z,15.90
2017-10-16T20:26:01.570Z,15.80
2017-10-16T20:28:28.285Z,15.70
2017-10-16T20:30:54.255Z,15.70
2017-10-16T20:33:20.225Z,15.60
2017-10-16T20:35:46.954Z,15.50
2017-10-16T20:38:12.941Z,15.50
2017-10-16T20:40:39.682Z,15.40
2017-10-16T20:43:06.404Z,15.50
2017-10-16T20:45:33.076Z,15.40
2017-10-16T20:47:59.009Z,15.40
2017-10-16T20:50:25.785Z,15.30
2017-10-16T20:52:51.722Z,15.30
2017-10-16T20:55:17.661Z,15.30
2017-10-16T20:57:43.654Z,15.20
2017-10-16T21:00:11.084Z,15.20
2017-10-16T21:02:37.130Z,15.20
2017-10-16T21:05:03.805Z,15.10
2017-10-16T21:07:29.789Z,15.10
2017-10-16T21:09:55.724Z,15.10
2017-10-16T21:12:21.671Z,15.00
2017-10-16T21:14:47.645Z,15.00
2017-10-16T21:17:13.626Z,15.00
2017-10-16T21:19:39.577Z,15.00
2017-10-16T21:22:05.541Z,15.00
2017-10-16T21:24:31.510Z,15.00
2017-10-16T21:26:57.478Z,14.80
2017-10-16T21:29:23.461Z,14.80
2017-10-16T21:31:49.400Z,14.70
2017-10-16T21:34:15.386Z,14.70
2017-10-16T21:36:41.434Z,14.70
2017-10-16T21:39:07.378Z,14.70
2017-10-16T21:41:34.061Z,14.60
2017-10-16T21:44:00.036Z,14.60
2017-10-16T21:46:25.972Z,14.60
2017-10-16T21:48:51.952Z,14.60
2017-10-16T21:51:17.957Z,14.50
2017-10-16T21:53:43.917Z,14.50
2017-10-16T21:56:09.937Z,14.50
2017-10-16T21:58:35.874Z,14.50
2017-10-16T22:01:01.836Z,14.40
2017-10-16T22:03:27.782Z,14.40
2017-10-16T22:05:53.764Z,14.30
2017-10-16T22:08:19.737Z,14.30
2017-10-16T22:10:45.735Z,14.30
2017-10-16T22:13:11.690Z,14.30
2017-10-16T22:15:37.629Z,14.30
2017-10-16T22:18:03.601Z,14.20
2017-10-16T22:20:29.537Z,14.20
2017-10-16T22:22:56.253Z,14.10
2017-10-16T22:25:22.933Z,14.10
2017-10-16T22:27:48.868Z,14.10
2017-10-16T22:30:14.857Z,14.10
2017-10-16T22:32:40.844Z,14.00
2017-10-16T22:35:09.628Z,14.00
2017-10-16T22:37:35.572Z,14.00
2017-10-16T22:40:01.514Z,14.10
2017-10-16T22:42:27.489Z,14.10
2017-10-16T22:44:53.437Z,14.20
2017-10-16T22:47:20.426Z,14.10
2017-10-16T22:49:46.365Z,14.00
2017-10-16T22:52:12.349Z,13.90
2017-10-16T22:54:44.141Z,13.80
2017-10-16T22:57:10.106Z,13.80
2017-10-16T22:59:36.817Z,13.80
2017-10-16T23:02:02.752Z,13.80
2017-10-16T23:04:29.473Z,13.80
2017-10-16T23:06:56.154Z,13.70
2017-10-16T23:09:22.098Z,13.70
2017-10-16T23:11:48.825Z,13.70
2017-10-16T23:14:15.518Z,13.70
2017-10-16T23:16:41.484Z,13.60
2017-10-16T23:19:07.453Z,13.60
2017-10-16T23:21:33.514Z,13.50
2017-10-16T23:23:59.449Z,13.50
2017-10-16T23:26:25.413Z,13.50
2017-10-16T23:28:51.384Z,13.50
2017-10-16T23:31:17.313Z,13.40
2017-10-16T23:33:44.014Z,13.30
2017-10-16T23:36:10.019Z,13.30
2017-10-16T23:38:35.953Z,13.40
2017-10-16T23:41:02.627Z,13.30
2017-10-16T23:43:28.592Z,13.30
2017-10-16T23:45:55.264Z,13.30
2017-10-16T23:48:21.239Z,13.30
2017-10-16T23:50:47.198Z,13.30
2017-10-16T23:53:13.212Z,13.30
2017-10-16T23:55:39.208Z,13.30
2017-10-16T23:58:05.145Z,13.20
